sensor_id;sensor_type;location;lat;lon;timestamp;P1;durP1;ratioP1;P2;durP2;ratioP2
68126;SDS011;54931;52.098;21.006;2023-09-19T00:00:57;18.20;;;10.80;;
68126;SDS011;54931;52.098;21.006;2023-09-19T00:03:38;16.10;;;10.20;;
68126;SDS011;54931;52.098;21.006;2023-09-19T00:06:06;17.30;;;10.70;;
68126;SDS011;54931;52.098;21.006;2023-09-19T00:08:37;21.50;;;11.80;;
68126;SDS011;54931;52.098;21.006;2023-09-19T00:11:05;22.10;;;12.30;;
68126;SDS011;54931;52.098;21.006;2023-09-19T00:13:33;19.10;;;12.20;;
68126;SDS011;54931;52.098;21.006;2023-09-19T00:16:10;18.30;;;11.20;;
68126;SDS011;54931;52.098;21.006;2023-09-19T00:18:38;18.70;;;11.20;;
68126;SDS011;54931;52.098;21.006;2023-09-19T00:21:06;17.50;;;11.30;;
68126;SDS011;54931;52.098;21.006;2023-09-19T00:23:34;16.80;;;10.90;;
68126;SDS011;54931;52.098;21.006;2023-09-19T00:26:02;20.40;;;11.20;;
68126;SDS011;54931;52.098;21.006;2023-09-19T00:28:31;18.90;;;11.50;;
68126;SDS011;54931;52.098;21.006;2023-09-19T00:30:59;20.40;;;12.20;;
68126;SDS011;54931;52.098;21.006;2023-09-19T00:33:28;18.30;;;11.10;;
68126;SDS011;54931;52.098;21.006;2023-09-19T00:35:57;17.60;;;11.50;;
68126;SDS011;54931;52.098;21.006;2023-09-19T00:38:25;18.60;;;11.20;;
68126;SDS011;54931;52.098;21.006;2023-09-19T00:40:54;19.40;;;12.50;;
68126;SDS011;54931;52.098;21.006;2023-09-19T00:43:23;24.60;;;11.90;;
68126;SDS011;54931;52.098;21.006;2023-09-19T00:45:53;18.00;;;11.30;;
68126;SDS011;54931;52.098;21.006;2023-09-19T00:48:23;18.80;;;11.30;;
68126;SDS011;54931;52.098;21.006;2023-09-19T00:50:58;16.80;;;10.60;;
68126;SDS011;54931;52.098;21.006;2023-09-19T00:53:32;20.30;;;12.10;;
68126;SDS011;54931;52.098;21.006;2023-09-19T00:56:02;20.90;;;11.50;;
68126;SDS011;54931;52.098;21.006;2023-09-19T00:58:36;16.10;;;10.70;;
68126;SDS011;54931;52.098;21.006;2023-09-19T01:01:04;17.70;;;11.40;;
68126;SDS011;54931;52.098;21.006;2023-09-19T01:03:34;20.90;;;12.20;;
68126;SDS011;54931;52.098;21.006;2023-09-19T01:06:08;19.70;;;11.90;;
68126;SDS011;54931;52.098;21.006;2023-09-19T01:08:36;19.40;;;11.90;;
68126;SDS011;54931;52.098;21.006;2023-09-19T01:11:21;18.60;;;11.50;;
68126;SDS011;54931;52.098;21.006;2023-09-19T01:14:24;18.90;;;12.00;;
68126;SDS011;54931;52.098;21.006;2023-09-19T01:17:30;19.00;;;11.50;;
68126;SDS011;54931;52.098;21.006;2023-09-19T01:20:23;23.50;;;12.20;;
68126;SDS011;54931;52.098;21.006;2023-09-19T01:29:39;18.00;;;11.80;;
68126;SDS011;54931;52.098;21.006;2023-09-19T01:32:13;19.50;;;12.10;;
68126;SDS011;54931;52.098;21.006;2023-09-19T01:34:52;19.60;;;12.50;;
68126;SDS011;54931;52.098;21.006;2023-09-19T01:37:24;18.50;;;11.50;;
68126;SDS011;54931;52.098;21.006;2023-09-19T01:40:04;17.40;;;11.40;;
68126;SDS011;54931;52.098;21.006;2023-09-19T01:42:57;19.60;;;12.10;;
68126;SDS011;54931;52.098;21.006;2023-09-19T01:45:34;17.60;;;11.40;;
68126;SDS011;54931;52.098;21.006;2023-09-19T01:54:33;18.70;;;12.20;;
68126;SDS011;54931;52.098;21.006;2023-09-19T02:02:37;18.00;;;11.80;;
68126;SDS011;54931;52.098;21.006;2023-09-19T02:05:07;18.90;;;10.80;;
68126;SDS011;54931;52.098;21.006;2023-09-19T02:07:36;19.90;;;12.40;;
68126;SDS011;54931;52.098;21.006;2023-09-19T02:10:06;16.60;;;9.90;;
68126;SDS011;54931;52.098;21.006;2023-09-19T02:12:34;19.50;;;11.50;;
68126;SDS011;54931;52.098;21.006;2023-09-19T02:15:03;18.80;;;11.10;;
68126;SDS011;54931;52.098;21.006;2023-09-19T02:17:34;20.10;;;11.70;;
68126;SDS011;54931;52.098;21.006;2023-09-19T02:20:03;20.30;;;12.60;;
68126;SDS011;54931;52.098;21.006;2023-09-19T02:22:42;17.50;;;11.20;;
68126;SDS011;54931;52.098;21.006;2023-09-19T02:25:10;18.20;;;11.20;;
68126;SDS011;54931;52.098;21.006;2023-09-19T02:27:38;17.60;;;11.10;;
68126;SDS011;54931;52.098;21.006;2023-09-19T02:30:07;18.20;;;11.10;;
68126;SDS011;54931;52.098;21.006;2023-09-19T02:32:35;21.30;;;12.20;;
68126;SDS011;54931;52.098;21.006;2023-09-19T02:35:06;16.40;;;10.80;;
68126;SDS011;54931;52.098;21.006;2023-09-19T02:37:35;18.40;;;12.10;;
68126;SDS011;54931;52.098;21.006;2023-09-19T02:40:03;18.10;;;11.40;;
68126;SDS011;54931;52.098;21.006;2023-09-19T02:42:49;17.70;;;11.90;;
68126;SDS011;54931;52.098;21.006;2023-09-19T02:45:20;20.10;;;11.40;;
68126;SDS011;54931;52.098;21.006;2023-09-19T02:47:50;17.30;;;11.30;;
68126;SDS011;54931;52.098;21.006;2023-09-19T02:50:19;18.90;;;11.90;;
68126;SDS011;54931;52.098;21.006;2023-09-19T02:52:47;18.60;;;12.30;;
68126;SDS011;54931;52.098;21.006;2023-09-19T02:55:19;17.50;;;11.60;;
68126;SDS011;54931;52.098;21.006;2023-09-19T02:57:50;17.60;;;11.70;;
68126;SDS011;54931;52.098;21.006;2023-09-19T03:00:22;21.10;;;12.10;;
68126;SDS011;54931;52.098;21.006;2023-09-19T03:02:54;18.80;;;12.30;;
68126;SDS011;54931;52.098;21.006;2023-09-19T03:05:23;20.20;;;11.80;;
68126;SDS011;54931;52.098;21.006;2023-09-19T03:07:52;19.70;;;12.80;;
68126;SDS011;54931;52.098;21.006;2023-09-19T03:10:21;21.00;;;12.10;;
68126;SDS011;54931;52.098;21.006;2023-09-19T03:12:50;22.40;;;12.00;;
68126;SDS011;54931;52.098;21.006;2023-09-19T03:15:17;21.10;;;11.70;;
68126;SDS011;54931;52.098;21.006;2023-09-19T03:17:46;21.40;;;12.30;;
68126;SDS011;54931;52.098;21.006;2023-09-19T03:20:15;17.50;;;10.80;;
68126;SDS011;54931;52.098;21.006;2023-09-19T03:22:48;21.30;;;12.30;;
68126;SDS011;54931;52.098;21.006;2023-09-19T03:25:16;19.40;;;11.80;;
68126;SDS011;54931;52.098;21.006;2023-09-19T03:27:44;22.00;;;12.90;;
68126;SDS011;54931;52.098;21.006;2023-09-19T03:30:12;20.00;;;12.40;;
68126;SDS011;54931;52.098;21.006;2023-09-19T03:32:47;20.00;;;12.00;;
68126;SDS011;54931;52.098;21.006;2023-09-19T03:35:17;21.10;;;12.80;;
68126;SDS011;54931;52.098;21.006;2023-09-19T03:37:45;21.00;;;13.10;;
68126;SDS011;54931;52.098;21.006;2023-09-19T03:40:14;23.50;;;12.90;;
68126;SDS011;54931;52.098;21.006;2023-09-19T03:45:10;23.20;;;12.20;;
68126;SDS011;54931;52.098;21.006;2023-09-19T03:47:43;19.70;;;11.30;;
68126;SDS011;54931;52.098;21.006;2023-09-19T03:50:14;20.90;;;12.60;;
68126;SDS011;54931;52.098;21.006;2023-09-19T03:52:45;19.60;;;12.70;;
68126;SDS011;54931;52.098;21.006;2023-09-19T03:55:13;22.50;;;12.20;;
68126;SDS011;54931;52.098;21.006;2023-09-19T03:57:41;19.40;;;11.60;;
68126;SDS011;54931;52.098;21.006;2023-09-19T04:00:10;21.70;;;12.10;;
68126;SDS011;54931;52.098;21.006;2023-09-19T04:02:42;20.10;;;11.70;;
68126;SDS011;54931;52.098;21.006;2023-09-19T04:05:10;19.00;;;11.40;;
68126;SDS011;54931;52.098;21.006;2023-09-19T04:07:38;20.90;;;12.70;;
68126;SDS011;54931;52.098;21.006;2023-09-19T04:10:06;19.90;;;12.50;;
68126;SDS011;54931;52.098;21.006;2023-09-19T04:12:36;19.30;;;12.60;;
68126;SDS011;54931;52.098;21.006;2023-09-19T04:15:05;21.80;;;13.20;;
68126;SDS011;54931;52.098;21.006;2023-09-19T04:17:33;19.50;;;12.40;;
68126;SDS011;54931;52.098;21.006;2023-09-19T04:20:01;20.40;;;12.10;;
68126;SDS011;54931;52.098;21.006;2023-09-19T04:22:29;18.60;;;12.10;;
68126;SDS011;54931;52.098;21.006;2023-09-19T04:24:57;24.50;;;12.80;;
68126;SDS011;54931;52.098;21.006;2023-09-19T04:27:25;21.60;;;12.60;;
68126;SDS011;54931;52.098;21.006;2023-09-19T04:29:53;20.00;;;12.20;;
68126;SDS011;54931;52.098;21.006;2023-09-19T04:32:21;18.50;;;11.60;;
68126;SDS011;54931;52.098;21.006;2023-09-19T04:34:48;20.50;;;12.10;;
68126;SDS011;54931;52.098;21.006;2023-09-19T04:37:17;24.40;;;12.80;;
68126;SDS011;54931;52.098;21.006;2023-09-19T04:39:45;21.10;;;12.30;;
68126;SDS011;54931;52.098;21.006;2023-09-19T04:42:13;19.30;;;12.20;;
68126;SDS011;54931;52.098;21.006;2023-09-19T04:44:44;21.00;;;12.30;;
68126;SDS011;54931;52.098;21.006;2023-09-19T04:47:12;20.80;;;11.60;;
68126;SDS011;54931;52.098;21.006;2023-09-19T04:49:40;20.40;;;12.20;;
68126;SDS011;54931;52.098;21.006;2023-09-19T04:52:07;20.00;;;12.00;;
68126;SDS011;54931;52.098;21.006;2023-09-19T04:54:35;20.70;;;12.00;;
68126;SDS011;54931;52.098;21.006;2023-09-19T04:57:03;23.00;;;12.30;;
68126;SDS011;54931;52.098;21.006;2023-09-19T04:59:33;22.00;;;12.50;;
68126;SDS011;54931;52.098;21.006;2023-09-19T05:02:00;19.20;;;10.90;;
68126;SDS011;54931;52.098;21.006;2023-09-19T05:04:28;19.70;;;11.90;;
68126;SDS011;54931;52.098;21.006;2023-09-19T05:06:56;20.50;;;12.40;;
68126;SDS011;54931;52.098;21.006;2023-09-19T05:09:24;21.60;;;12.50;;
68126;SDS011;54931;52.098;21.006;2023-09-19T05:11:52;17.30;;;10.80;;
68126;SDS011;54931;52.098;21.006;2023-09-19T05:14:20;23.20;;;12.30;;
68126;SDS011;54931;52.098;21.006;2023-09-19T05:16:48;20.00;;;12.30;;
68126;SDS011;54931;52.098;21.006;2023-09-19T05:19:16;18.70;;;11.60;;
68126;SDS011;54931;52.098;21.006;2023-09-19T05:21:44;19.50;;;12.00;;
68126;SDS011;54931;52.098;21.006;2023-09-19T05:24:12;21.40;;;11.70;;
68126;SDS011;54931;52.098;21.006;2023-09-19T05:26:42;23.50;;;11.60;;
68126;SDS011;54931;52.098;21.006;2023-09-19T05:29:09;18.40;;;11.80;;
68126;SDS011;54931;52.098;21.006;2023-09-19T05:31:37;18.60;;;11.20;;
68126;SDS011;54931;52.098;21.006;2023-09-19T05:34:08;17.10;;;10.50;;
68126;SDS011;54931;52.098;21.006;2023-09-19T05:36:37;18.50;;;11.70;;
68126;SDS011;54931;52.098;21.006;2023-09-19T05:39:06;19.60;;;11.20;;
68126;SDS011;54931;52.098;21.006;2023-09-19T05:41:36;18.40;;;10.70;;
68126;SDS011;54931;52.098;21.006;2023-09-19T05:44:07;20.70;;;11.60;;
68126;SDS011;54931;52.098;21.006;2023-09-19T05:46:35;19.00;;;11.40;;
68126;SDS011;54931;52.098;21.006;2023-09-19T05:49:03;18.10;;;10.80;;
68126;SDS011;54931;52.098;21.006;2023-09-19T05:51:31;20.60;;;11.40;;
68126;SDS011;54931;52.098;21.006;2023-09-19T05:53:58;17.20;;;11.00;;
68126;SDS011;54931;52.098;21.006;2023-09-19T05:56:27;18.20;;;11.40;;
68126;SDS011;54931;52.098;21.006;2023-09-19T05:58:55;18.20;;;10.40;;
68126;SDS011;54931;52.098;21.006;2023-09-19T06:01:22;18.20;;;11.60;;
68126;SDS011;54931;52.098;21.006;2023-09-19T06:03:50;21.30;;;11.00;;
68126;SDS011;54931;52.098;21.006;2023-09-19T06:06:20;17.90;;;11.50;;
68126;SDS011;54931;52.098;21.006;2023-09-19T06:08:49;21.80;;;10.60;;
68126;SDS011;54931;52.098;21.006;2023-09-19T06:11:17;16.30;;;10.90;;
68126;SDS011;54931;52.098;21.006;2023-09-19T06:13:47;20.10;;;11.00;;
68126;SDS011;54931;52.098;21.006;2023-09-19T06:16:16;20.60;;;11.30;;
68126;SDS011;54931;52.098;21.006;2023-09-19T06:18:46;15.80;;;10.40;;
68126;SDS011;54931;52.098;21.006;2023-09-19T06:21:15;17.00;;;10.80;;
68126;SDS011;54931;52.098;21.006;2023-09-19T06:23:43;15.90;;;10.50;;
68126;SDS011;54931;52.098;21.006;2023-09-19T06:26:11;16.10;;;10.30;;
68126;SDS011;54931;52.098;21.006;2023-09-19T06:28:40;15.60;;;10.80;;
68126;SDS011;54931;52.098;21.006;2023-09-19T06:31:10;17.90;;;11.20;;
68126;SDS011;54931;52.098;21.006;2023-09-19T06:33:39;22.10;;;11.30;;
68126;SDS011;54931;52.098;21.006;2023-09-19T06:36:07;19.30;;;10.80;;
68126;SDS011;54931;52.098;21.006;2023-09-19T06:38:36;22.20;;;10.80;;
68126;SDS011;54931;52.098;21.006;2023-09-19T06:41:06;20.60;;;11.00;;
68126;SDS011;54931;52.098;21.006;2023-09-19T06:43:35;17.10;;;11.10;;
68126;SDS011;54931;52.098;21.006;2023-09-19T06:46:04;22.60;;;10.80;;
68126;SDS011;54931;52.098;21.006;2023-09-19T06:48:32;20.80;;;11.00;;
68126;SDS011;54931;52.098;21.006;2023-09-19T06:51:01;17.90;;;10.30;;
68126;SDS011;54931;52.098;21.006;2023-09-19T06:53:32;17.50;;;10.50;;
68126;SDS011;54931;52.098;21.006;2023-09-19T06:56:03;18.20;;;10.60;;
68126;SDS011;54931;52.098;21.006;2023-09-19T06:58:31;18.30;;;10.70;;
68126;SDS011;54931;52.098;21.006;2023-09-19T07:00:58;20.50;;;10.60;;
68126;SDS011;54931;52.098;21.006;2023-09-19T07:03:26;20.30;;;10.70;;
68126;SDS011;54931;52.098;21.006;2023-09-19T07:05:56;15.50;;;10.30;;
68126;SDS011;54931;52.098;21.006;2023-09-19T07:08:23;16.30;;;10.30;;
68126;SDS011;54931;52.098;21.006;2023-09-19T07:10:52;19.80;;;10.40;;
68126;SDS011;54931;52.098;21.006;2023-09-19T07:13:20;14.40;;;10.30;;
68126;SDS011;54931;52.098;21.006;2023-09-19T07:15:47;16.20;;;10.50;;
68126;SDS011;54931;52.098;21.006;2023-09-19T07:18:18;16.20;;;9.40;;
68126;SDS011;54931;52.098;21.006;2023-09-19T07:20:45;16.50;;;10.20;;
68126;SDS011;54931;52.098;21.006;2023-09-19T07:23:19;20.90;;;10.10;;
68126;SDS011;54931;52.098;21.006;2023-09-19T07:25:49;15.20;;;10.30;;
68126;SDS011;54931;52.098;21.006;2023-09-19T07:28:17;15.20;;;10.00;;
68126;SDS011;54931;52.098;21.006;2023-09-19T07:30:45;14.00;;;10.20;;
68126;SDS011;54931;52.098;21.006;2023-09-19T07:33:13;15.40;;;9.80;;
68126;SDS011;54931;52.098;21.006;2023-09-19T07:35:45;12.50;;;9.10;;
68126;SDS011;54931;52.098;21.006;2023-09-19T07:38:14;16.60;;;9.70;;
68126;SDS011;54931;52.098;21.006;2023-09-19T07:40:42;15.20;;;9.60;;
68126;SDS011;54931;52.098;21.006;2023-09-19T07:43:11;14.90;;;10.20;;
68126;SDS011;54931;52.098;21.006;2023-09-19T07:45:38;14.40;;;10.00;;
68126;SDS011;54931;52.098;21.006;2023-09-19T07:48:07;16.00;;;10.50;;
68126;SDS011;54931;52.098;21.006;2023-09-19T07:50:41;14.30;;;9.70;;
68126;SDS011;54931;52.098;21.006;2023-09-19T07:53:11;14.20;;;10.40;;
68126;SDS011;54931;52.098;21.006;2023-09-19T07:55:40;15.60;;;10.40;;
68126;SDS011;54931;52.098;21.006;2023-09-19T07:58:09;15.00;;;9.90;;
68126;SDS011;54931;52.098;21.006;2023-09-19T08:00:36;16.60;;;10.10;;
68126;SDS011;54931;52.098;21.006;2023-09-19T08:03:04;14.90;;;9.90;;
68126;SDS011;54931;52.098;21.006;2023-09-19T08:05:32;14.90;;;10.00;;
68126;SDS011;54931;52.098;21.006;2023-09-19T08:08:15;18.90;;;10.70;;
68126;SDS011;54931;52.098;21.006;2023-09-19T08:10:43;18.20;;;11.50;;
68126;SDS011;54931;52.098;21.006;2023-09-19T08:13:16;21.00;;;12.40;;
68126;SDS011;54931;52.098;21.006;2023-09-19T08:15:45;18.50;;;12.60;;
68126;SDS011;54931;52.098;21.006;2023-09-19T08:18:14;17.00;;;11.80;;
68126;SDS011;54931;52.098;21.006;2023-09-19T08:20:42;17.20;;;10.90;;
68126;SDS011;54931;52.098;21.006;2023-09-19T08:23:13;19.70;;;13.00;;
68126;SDS011;54931;52.098;21.006;2023-09-19T08:25:41;21.70;;;13.10;;
68126;SDS011;54931;52.098;21.006;2023-09-19T08:28:09;18.40;;;12.80;;
68126;SDS011;54931;52.098;21.006;2023-09-19T08:30:45;21.50;;;12.60;;
68126;SDS011;54931;52.098;21.006;2023-09-19T08:33:13;23.60;;;13.10;;
68126;SDS011;54931;52.098;21.006;2023-09-19T08:35:42;18.90;;;12.60;;
68126;SDS011;54931;52.098;21.006;2023-09-19T08:38:10;22.30;;;12.80;;
68126;SDS011;54931;52.098;21.006;2023-09-19T08:40:39;21.80;;;12.60;;
68126;SDS011;54931;52.098;21.006;2023-09-19T08:43:09;22.00;;;13.20;;
68126;SDS011;54931;52.098;21.006;2023-09-19T08:45:37;21.70;;;13.40;;
68126;SDS011;54931;52.098;21.006;2023-09-19T08:50:39;19.40;;;13.00;;
68126;SDS011;54931;52.098;21.006;2023-09-19T08:53:21;19.90;;;12.50;;
68126;SDS011;54931;52.098;21.006;2023-09-19T08:56:00;18.70;;;12.20;;
68126;SDS011;54931;52.098;21.006;2023-09-19T08:58:34;21.40;;;12.80;;
68126;SDS011;54931;52.098;21.006;2023-09-19T09:01:11;19.70;;;12.80;;
68126;SDS011;54931;52.098;21.006;2023-09-19T09:03:42;22.10;;;14.00;;
68126;SDS011;54931;52.098;21.006;2023-09-19T09:06:14;21.00;;;14.00;;
68126;SDS011;54931;52.098;21.006;2023-09-19T09:08:43;19.30;;;13.00;;
68126;SDS011;54931;52.098;21.006;2023-09-19T09:11:12;20.80;;;12.80;;
68126;SDS011;54931;52.098;21.006;2023-09-19T09:13:41;20.60;;;13.30;;
68126;SDS011;54931;52.098;21.006;2023-09-19T09:16:09;20.70;;;13.40;;
68126;SDS011;54931;52.098;21.006;2023-09-19T09:18:38;20.20;;;12.90;;
68126;SDS011;54931;52.098;21.006;2023-09-19T09:21:06;22.30;;;13.00;;
68126;SDS011;54931;52.098;21.006;2023-09-19T09:23:34;18.30;;;12.30;;
68126;SDS011;54931;52.098;21.006;2023-09-19T09:26:03;22.90;;;13.30;;
68126;SDS011;54931;52.098;21.006;2023-09-19T09:28:35;21.50;;;13.50;;
68126;SDS011;54931;52.098;21.006;2023-09-19T09:33:55;21.90;;;12.70;;
68126;SDS011;54931;52.098;21.006;2023-09-19T09:36:39;18.60;;;12.30;;
68126;SDS011;54931;52.098;21.006;2023-09-19T09:39:10;21.10;;;13.50;;
68126;SDS011;54931;52.098;21.006;2023-09-19T09:41:46;21.90;;;11.60;;
68126;SDS011;54931;52.098;21.006;2023-09-19T09:44:16;17.10;;;11.60;;
68126;SDS011;54931;52.098;21.006;2023-09-19T09:46:48;16.00;;;10.60;;
68126;SDS011;54931;52.098;21.006;2023-09-19T09:49:24;15.60;;;9.70;;
68126;SDS011;54931;52.098;21.006;2023-09-19T09:54:35;18.20;;;10.00;;
68126;SDS011;54931;52.098;21.006;2023-09-19T09:57:10;19.80;;;11.20;;
68126;SDS011;54931;52.098;21.006;2023-09-19T10:02:18;18.90;;;11.00;;
68126;SDS011;54931;52.098;21.006;2023-09-19T10:04:53;19.80;;;11.50;;
68126;SDS011;54931;52.098;21.006;2023-09-19T10:07:41;20.30;;;11.20;;
68126;SDS011;54931;52.098;21.006;2023-09-19T10:10:37;24.50;;;13.60;;
68126;SDS011;54931;52.098;21.006;2023-09-19T10:13:29;25.70;;;13.00;;
68126;SDS011;54931;52.098;21.006;2023-09-19T10:15:58;26.10;;;14.40;;
68126;SDS011;54931;52.098;21.006;2023-09-19T10:18:36;27.60;;;14.20;;
68126;SDS011;54931;52.098;21.006;2023-09-19T10:21:08;25.70;;;13.90;;
68126;SDS011;54931;52.098;21.006;2023-09-19T10:23:38;29.30;;;14.80;;
68126;SDS011;54931;52.098;21.006;2023-09-19T10:26:10;26.90;;;14.70;;
68126;SDS011;54931;52.098;21.006;2023-09-19T10:28:39;23.40;;;15.20;;
68126;SDS011;54931;52.098;21.006;2023-09-19T10:31:07;27.20;;;14.50;;
68126;SDS011;54931;52.098;21.006;2023-09-19T10:33:37;24.30;;;14.50;;
68126;SDS011;54931;52.098;21.006;2023-09-19T10:36:06;28.10;;;14.50;;
68126;SDS011;54931;52.098;21.006;2023-09-19T10:38:37;23.30;;;13.20;;
68126;SDS011;54931;52.098;21.006;2023-09-19T10:41:10;21.30;;;12.40;;
68126;SDS011;54931;52.098;21.006;2023-09-19T10:43:42;20.30;;;11.40;;
68126;SDS011;54931;52.098;21.006;2023-09-19T10:46:15;22.90;;;10.70;;
68126;SDS011;54931;52.098;21.006;2023-09-19T10:48:42;18.00;;;10.50;;
68126;SDS011;54931;52.098;21.006;2023-09-19T10:51:18;17.90;;;10.20;;
68126;SDS011;54931;52.098;21.006;2023-09-19T10:54:02;17.40;;;10.40;;
68126;SDS011;54931;52.098;21.006;2023-09-19T10:59:17;21.70;;;10.20;;
68126;SDS011;54931;52.098;21.006;2023-09-19T11:04:24;13.40;;;9.00;;
68126;SDS011;54931;52.098;21.006;2023-09-19T11:07:10;13.50;;;8.40;;
68126;SDS011;54931;52.098;21.006;2023-09-19T11:09:55;14.80;;;8.90;;
68126;SDS011;54931;52.098;21.006;2023-09-19T11:14:59;16.00;;;9.50;;
68126;SDS011;54931;52.098;21.006;2023-09-19T11:20:21;17.30;;;8.80;;
68126;SDS011;54931;52.098;21.006;2023-09-19T11:23:17;13.20;;;8.40;;
68126;SDS011;54931;52.098;21.006;2023-09-19T11:25:45;13.70;;;8.10;;
68126;SDS011;54931;52.098;21.006;2023-09-19T11:30:51;13.80;;;8.60;;
68126;SDS011;54931;52.098;21.006;2023-09-19T11:33:27;15.20;;;9.30;;
68126;SDS011;54931;52.098;21.006;2023-09-19T11:36:06;13.90;;;8.50;;
68126;SDS011;54931;52.098;21.006;2023-09-19T11:46:54;12.80;;;5.80;;
68126;SDS011;54931;52.098;21.006;2023-09-19T11:49:29;8.80;;;5.60;;
68126;SDS011;54931;52.098;21.006;2023-09-19T11:52:04;9.70;;;5.00;;
68126;SDS011;54931;52.098;21.006;2023-09-19T11:54:33;12.60;;;4.80;;
68126;SDS011;54931;52.098;21.006;2023-09-19T11:57:01;13.50;;;5.50;;
68126;SDS011;54931;52.098;21.006;2023-09-19T11:59:30;12.40;;;4.60;;
68126;SDS011;54931;52.098;21.006;2023-09-19T12:04:43;7.20;;;4.80;;
68126;SDS011;54931;52.098;21.006;2023-09-19T12:07:16;14.40;;;5.80;;
68126;SDS011;54931;52.098;21.006;2023-09-19T12:09:46;8.90;;;5.20;;
68126;SDS011;54931;52.098;21.006;2023-09-19T12:12:24;8.90;;;5.10;;
68126;SDS011;54931;52.098;21.006;2023-09-19T12:15:05;9.30;;;4.90;;
68126;SDS011;54931;52.098;21.006;2023-09-19T12:20:12;8.80;;;5.40;;
68126;SDS011;54931;52.098;21.006;2023-09-19T12:22:45;11.40;;;5.70;;
68126;SDS011;54931;52.098;21.006;2023-09-19T12:25:14;9.60;;;5.50;;
68126;SDS011;54931;52.098;21.006;2023-09-19T12:27:48;10.80;;;6.00;;
68126;SDS011;54931;52.098;21.006;2023-09-19T12:30:27;13.40;;;6.10;;
68126;SDS011;54931;52.098;21.006;2023-09-19T12:33:00;12.10;;;6.10;;
68126;SDS011;54931;52.098;21.006;2023-09-19T12:35:33;10.10;;;6.20;;
68126;SDS011;54931;52.098;21.006;2023-09-19T12:38:04;12.80;;;6.80;;
68126;SDS011;54931;52.098;21.006;2023-09-19T12:40:33;12.30;;;6.80;;
68126;SDS011;54931;52.098;21.006;2023-09-19T12:43:07;16.30;;;6.80;;
68126;SDS011;54931;52.098;21.006;2023-09-19T12:45:46;12.90;;;6.40;;
68126;SDS011;54931;52.098;21.006;2023-09-19T12:48:18;16.70;;;7.20;;
68126;SDS011;54931;52.098;21.006;2023-09-19T12:51:08;12.70;;;7.00;;
68126;SDS011;54931;52.098;21.006;2023-09-19T12:53:46;12.20;;;7.50;;
68126;SDS011;54931;52.098;21.006;2023-09-19T12:56:39;11.00;;;7.10;;
68126;SDS011;54931;52.098;21.006;2023-09-19T12:59:29;13.40;;;7.40;;
68126;SDS011;54931;52.098;21.006;2023-09-19T13:02:05;11.90;;;7.10;;
68126;SDS011;54931;52.098;21.006;2023-09-19T13:04:36;12.70;;;7.50;;
68126;SDS011;54931;52.098;21.006;2023-09-19T13:07:41;10.00;;;6.60;;
68126;SDS011;54931;52.098;21.006;2023-09-19T13:10:23;12.50;;;6.80;;
68126;SDS011;54931;52.098;21.006;2023-09-19T13:12:51;10.80;;;6.50;;
68126;SDS011;54931;52.098;21.006;2023-09-19T13:15:19;12.40;;;6.30;;
68126;SDS011;54931;52.098;21.006;2023-09-19T13:17:49;14.00;;;7.30;;
68126;SDS011;54931;52.098;21.006;2023-09-19T13:20:27;15.30;;;6.90;;
68126;SDS011;54931;52.098;21.006;2023-09-19T13:22:58;13.60;;;7.30;;
68126;SDS011;54931;52.098;21.006;2023-09-19T13:25:38;13.00;;;7.50;;
68126;SDS011;54931;52.098;21.006;2023-09-19T13:28:07;14.80;;;7.60;;
68126;SDS011;54931;52.098;21.006;2023-09-19T13:30:37;12.00;;;7.20;;
68126;SDS011;54931;52.098;21.006;2023-09-19T13:33:10;14.00;;;7.30;;
68126;SDS011;54931;52.098;21.006;2023-09-19T13:35:43;18.40;;;7.80;;
68126;SDS011;54931;52.098;21.006;2023-09-19T13:38:14;16.90;;;7.90;;
68126;SDS011;54931;52.098;21.006;2023-09-19T13:40:42;9.90;;;7.30;;
68126;SDS011;54931;52.098;21.006;2023-09-19T13:43:13;13.10;;;7.60;;
68126;SDS011;54931;52.098;21.006;2023-09-19T13:45:41;15.70;;;8.30;;
68126;SDS011;54931;52.098;21.006;2023-09-19T13:48:27;15.40;;;8.60;;
68126;SDS011;54931;52.098;21.006;2023-09-19T13:50:57;13.60;;;8.80;;
68126;SDS011;54931;52.098;21.006;2023-09-19T13:53:25;12.40;;;8.30;;
68126;SDS011;54931;52.098;21.006;2023-09-19T13:56:01;13.20;;;8.60;;
68126;SDS011;54931;52.098;21.006;2023-09-19T13:58:28;12.70;;;8.30;;
68126;SDS011;54931;52.098;21.006;2023-09-19T14:01:01;14.30;;;8.90;;
68126;SDS011;54931;52.098;21.006;2023-09-19T14:03:31;14.00;;;9.60;;
68126;SDS011;54931;52.098;21.006;2023-09-19T14:06:02;13.40;;;9.10;;
68126;SDS011;54931;52.098;21.006;2023-09-19T14:08:30;16.40;;;9.90;;
68126;SDS011;54931;52.098;21.006;2023-09-19T14:11:07;14.80;;;10.00;;
68126;SDS011;54931;52.098;21.006;2023-09-19T14:13:38;12.80;;;10.00;;
68126;SDS011;54931;52.098;21.006;2023-09-19T14:16:07;13.60;;;9.90;;
68126;SDS011;54931;52.098;21.006;2023-09-19T14:18:37;15.30;;;10.30;;
68126;SDS011;54931;52.098;21.006;2023-09-19T14:21:05;16.30;;;11.00;;
68126;SDS011;54931;52.098;21.006;2023-09-19T14:23:40;14.20;;;10.60;;
68126;SDS011;54931;52.098;21.006;2023-09-19T14:26:16;12.70;;;10.10;;
68126;SDS011;54931;52.098;21.006;2023-09-19T14:28:46;13.40;;;9.90;;
68126;SDS011;54931;52.098;21.006;2023-09-19T14:31:18;13.80;;;9.10;;
68126;SDS011;54931;52.098;21.006;2023-09-19T14:33:53;12.60;;;9.50;;
68126;SDS011;54931;52.098;21.006;2023-09-19T14:36:43;12.10;;;8.30;;
68126;SDS011;54931;52.098;21.006;2023-09-19T14:39:11;14.80;;;9.10;;
68126;SDS011;54931;52.098;21.006;2023-09-19T14:41:40;11.80;;;8.60;;
68126;SDS011;54931;52.098;21.006;2023-09-19T14:44:15;12.90;;;9.00;;
68126;SDS011;54931;52.098;21.006;2023-09-19T14:46:46;14.10;;;9.00;;
68126;SDS011;54931;52.098;21.006;2023-09-19T14:49:19;11.70;;;8.90;;
68126;SDS011;54931;52.098;21.006;2023-09-19T14:51:56;11.90;;;9.30;;
68126;SDS011;54931;52.098;21.006;2023-09-19T14:54:27;13.90;;;9.80;;
68126;SDS011;54931;52.098;21.006;2023-09-19T14:56:56;13.70;;;9.90;;
68126;SDS011;54931;52.098;21.006;2023-09-19T14:59:34;16.40;;;10.30;;
68126;SDS011;54931;52.098;21.006;2023-09-19T15:02:08;14.10;;;9.20;;
68126;SDS011;54931;52.098;21.006;2023-09-19T15:04:37;17.10;;;10.50;;
68126;SDS011;54931;52.098;21.006;2023-09-19T15:07:09;11.80;;;9.50;;
68126;SDS011;54931;52.098;21.006;2023-09-19T15:09:38;13.00;;;9.30;;
68126;SDS011;54931;52.098;21.006;2023-09-19T15:12:11;14.40;;;8.90;;
68126;SDS011;54931;52.098;21.006;2023-09-19T15:14:42;14.70;;;9.10;;
68126;SDS011;54931;52.098;21.006;2023-09-19T15:17:13;14.80;;;9.10;;
68126;SDS011;54931;52.098;21.006;2023-09-19T15:19:44;12.30;;;9.10;;
68126;SDS011;54931;52.098;21.006;2023-09-19T15:22:13;12.10;;;8.80;;
68126;SDS011;54931;52.098;21.006;2023-09-19T15:24:43;11.10;;;8.80;;
68126;SDS011;54931;52.098;21.006;2023-09-19T15:27:14;12.90;;;8.80;;
68126;SDS011;54931;52.098;21.006;2023-09-19T15:29:44;16.50;;;8.80;;
68126;SDS011;54931;52.098;21.006;2023-09-19T15:32:15;13.50;;;9.40;;
68126;SDS011;54931;52.098;21.006;2023-09-19T15:34:54;12.20;;;8.80;;
68126;SDS011;54931;52.098;21.006;2023-09-19T15:37:22;14.40;;;9.30;;